EZY86MJ EGCC-LGKO
Flight info
| Callsign | EZY86MJ |
|---|---|
| Flight time | 3h 53m |
| Altitude | 35000 |
| Route | DESIG L603 DOLAS DCT NAVPI DCT DODEN DCT NEGIX DCT DINKU DCT BESNI DCT LATLO DCT OBEDI DCT BERTA DCT TEBLI DCT TIVNU DCT MEDUX UM867 KOGAT DCT ERANA UL737 TSL UN130 MES UN139 LURUS L995 KOPAR |
| Aircraft | A320/M-SDE3FGHIRWY/LB1 |
Departure
| Time | 2026-05-04 16:38 |
|---|---|
| Airport | Manchester Airport (EGCC) |
Arrival
| Time | 2026-05-04 20:31 |
|---|---|
| Airport | Kos International Airport "Ippokratis" (LGKO) |
| Time | Latitude | Longitude | Altitude | Speed | Heading |
|---|---|---|---|---|---|
| 2026-05-04 15:40 | 53.36866 | -2.28845 | 255 ft | 0 kts | 135° |
| 2026-05-04 16:14 | 53.36880 | -2.28869 | 255 ft | 3 kts | 136° |
| 2026-05-04 16:15 | 53.36917 | -2.28857 | 255 ft | 3 kts | 224° |
| 2026-05-04 16:16 | 53.36923 | -2.28845 | 255 ft | 0 kts | 224° |
| 2026-05-04 16:18 | 53.36923 | -2.28846 | 255 ft | 0 kts | 224° |
| 2026-05-04 16:19 | 53.36834 | -2.28991 | 255 ft | 16 kts | 221° |
| 2026-05-04 16:19 | 53.36678 | -2.28933 | 255 ft | 12 kts | 136° |
| 2026-05-04 16:20 | 53.36525 | -2.28624 | 255 ft | 15 kts | 134° |
| 2026-05-04 16:20 | 53.36363 | -2.28350 | 255 ft | 17 kts | 135° |
| 2026-05-04 16:21 | 53.36148 | -2.27975 | 255 ft | 12 kts | 134° |
| 2026-05-04 16:22 | 53.36047 | -2.27819 | 255 ft | 8 kts | 158° |
| 2026-05-04 16:22 | 53.35833 | -2.27768 | 255 ft | 0 kts | 152° |
| 2026-05-04 16:23 | 53.35667 | -2.27587 | 256 ft | 11 kts | 144° |
| 2026-05-04 16:24 | 53.35632 | -2.27542 | 256 ft | 0 kts | 140° |
| 2026-05-04 16:26 | 53.35566 | -2.27453 | 256 ft | 0 kts | 141° |
| 2026-05-04 16:30 | 53.35442 | -2.27283 | 254 ft | 28 kts | 141° |
| 2026-05-04 16:31 | 53.35204 | -2.27382 | 243 ft | 21 kts | 231° |
| 2026-05-04 16:31 | 53.35147 | -2.27500 | 241 ft | 10 kts | 231° |
| 2026-05-04 16:32 | 53.34945 | -2.27904 | 235 ft | 15 kts | 209° |
| 2026-05-04 16:33 | 53.34875 | -2.27857 | 235 ft | 2 kts | 142° |
| 2026-05-04 16:33 | 53.34867 | -2.27848 | 235 ft | 0 kts | 145° |
| 2026-05-04 16:36 | 53.34866 | -2.27847 | 235 ft | 2 kts | 145° |
| 2026-05-04 16:36 | 53.34768 | -2.27819 | 231 ft | 2 kts | 229° |
| 2026-05-04 16:37 | 53.34766 | -2.27823 | 231 ft | 0 kts | 231° |
| 2026-05-04 16:37 | 53.34679 | -2.28010 | 231 ft | 55 kts | 232° |
| 2026-05-04 16:37 | 53.33660 | -2.30119 | 303 ft | 158 kts | 231° |
| 2026-05-04 16:38 | 53.32312 | -2.33031 | 1602 ft | 162 kts | 232° |
| 2026-05-04 16:39 | 53.31606 | -2.39423 | 2437 ft | 228 kts | 291° |
| 2026-05-04 16:39 | 53.33902 | -2.43417 | 3353 ft | 256 kts | 341° |
| 2026-05-04 16:40 | 53.37470 | -2.43760 | 4786 ft | 264 kts | 2° |
| 2026-05-04 16:40 | 53.40815 | -2.41692 | 5653 ft | 269 kts | 49° |
| 2026-05-04 16:41 | 53.41881 | -2.35726 | 7158 ft | 278 kts | 89° |
| 2026-05-04 16:41 | 53.41854 | -2.25782 | 9325 ft | 290 kts | 90° |
| 2026-05-04 16:42 | 53.41794 | -2.15091 | 10494 ft | 337 kts | 90° |
| 2026-05-04 16:43 | 53.41749 | -2.06741 | 10861 ft | 375 kts | 90° |
| 2026-05-04 16:43 | 53.41710 | -1.97867 | 12018 ft | 385 kts | 90° |
| 2026-05-04 16:43 | 53.41693 | -1.93366 | 12639 ft | 388 kts | 90° |
| 2026-05-04 16:44 | 53.39817 | -1.75464 | 14920 ft | 400 kts | 110° |
| 2026-05-04 16:45 | 53.37938 | -1.66626 | 16017 ft | 405 kts | 110° |
| 2026-05-04 16:46 | 53.35132 | -1.53294 | 18221 ft | 397 kts | 110° |
| 2026-05-04 16:46 | 53.33425 | -1.44350 | 18859 ft | 414 kts | 107° |
| 2026-05-04 16:47 | 53.31922 | -1.34897 | 19530 ft | 425 kts | 106° |
| 2026-05-04 16:47 | 53.30425 | -1.25286 | 20357 ft | 429 kts | 106° |
| 2026-05-04 16:48 | 53.28056 | -1.10818 | 21518 ft | 435 kts | 107° |
| 2026-05-04 16:48 | 53.27240 | -1.05941 | 21883 ft | 437 kts | 107° |
| 2026-05-04 16:49 | 53.25588 | -0.96135 | 22580 ft | 441 kts | 107° |
| 2026-05-04 16:49 | 53.23921 | -0.86222 | 23259 ft | 445 kts | 107° |
| 2026-05-04 16:50 | 53.22236 | -0.76250 | 23872 ft | 448 kts | 108° |
| 2026-05-04 16:50 | 53.20568 | -0.66375 | 24889 ft | 440 kts | 108° |
| 2026-05-04 16:51 | 53.18858 | -0.56438 | 25129 ft | 452 kts | 108° |
| 2026-05-04 16:51 | 53.17983 | -0.51372 | 25265 ft | 456 kts | 108° |
| 2026-05-04 16:51 | 53.16218 | -0.41129 | 25670 ft | 461 kts | 108° |
| 2026-05-04 16:52 | 53.14436 | -0.30839 | 26084 ft | 464 kts | 108° |
| 2026-05-04 16:52 | 53.13533 | -0.25665 | 26280 ft | 466 kts | 109° |
| 2026-05-04 16:53 | 53.11728 | -0.15337 | 26659 ft | 469 kts | 109° |
| 2026-05-04 16:53 | 53.09027 | 0.00017 | 28061 ft | 456 kts | 109° |
| 2026-05-04 16:54 | 53.08129 | 0.05076 | 28340 ft | 457 kts | 109° |
| 2026-05-04 16:55 | 53.04498 | 0.25362 | 29288 ft | 462 kts | 110° |
| 2026-05-04 16:55 | 53.02656 | 0.35639 | 29673 ft | 465 kts | 110° |
| 2026-05-04 16:56 | 53.00798 | 0.45911 | 30191 ft | 465 kts | 110° |
| 2026-05-04 16:56 | 52.97985 | 0.61297 | 30854 ft | 464 kts | 110° |
| 2026-05-04 16:57 | 52.97047 | 0.66418 | 31066 ft | 464 kts | 110° |
| 2026-05-04 16:57 | 52.95170 | 0.76638 | 31525 ft | 463 kts | 111° |
| 2026-05-04 16:58 | 52.92350 | 0.91852 | 32209 ft | 462 kts | 111° |
| 2026-05-04 16:58 | 52.91401 | 0.96932 | 32436 ft | 461 kts | 111° |
| 2026-05-04 16:59 | 52.89500 | 1.07082 | 32880 ft | 461 kts | 111° |
| 2026-05-04 17:00 | 52.85687 | 1.27297 | 33775 ft | 459 kts | 111° |
| 2026-05-04 17:00 | 52.82814 | 1.42391 | 34367 ft | 458 kts | 111° |
| 2026-05-04 17:01 | 52.80891 | 1.52435 | 34711 ft | 458 kts | 111° |
| 2026-05-04 17:01 | 52.78958 | 1.62471 | 35007 ft | 459 kts | 111° |
| 2026-05-04 17:02 | 52.77005 | 1.72546 | 35045 ft | 462 kts | 111° |
| 2026-05-04 17:03 | 52.74049 | 1.87694 | 35034 ft | 462 kts | 112° |
| 2026-05-04 17:03 | 52.71072 | 2.02826 | 35028 ft | 463 kts | 112° |
| 2026-05-04 17:04 | 52.67091 | 2.22933 | 35020 ft | 463 kts | 112° |
| 2026-05-04 17:05 | 52.63053 | 2.43080 | 35021 ft | 463 kts | 112° |
| 2026-05-04 17:06 | 52.60004 | 2.58191 | 35015 ft | 464 kts | 112° |
| 2026-05-04 17:07 | 52.57273 | 2.71564 | 35012 ft | 464 kts | 112° |
| 2026-05-04 17:07 | 52.54816 | 2.83279 | 35008 ft | 461 kts | 117° |
| 2026-05-04 17:08 | 52.50355 | 2.97058 | 35005 ft | 457 kts | 123° |
| 2026-05-04 17:09 | 52.47297 | 3.06202 | 34998 ft | 457 kts | 123° |
| 2026-05-04 17:09 | 52.44227 | 3.15342 | 35010 ft | 457 kts | 123° |
| 2026-05-04 17:10 | 52.36503 | 3.38099 | 35011 ft | 457 kts | 123° |
| 2026-05-04 17:11 | 52.33406 | 3.47192 | 35004 ft | 458 kts | 123° |
| 2026-05-04 17:12 | 52.28773 | 3.60763 | 35001 ft | 458 kts | 123° |
| 2026-05-04 17:13 | 52.20957 | 3.83372 | 34990 ft | 457 kts | 124° |
| 2026-05-04 17:14 | 52.14702 | 4.01400 | 34987 ft | 457 kts | 124° |
| 2026-05-04 17:15 | 52.09984 | 4.14869 | 34989 ft | 456 kts | 124° |
| 2026-05-04 17:16 | 52.03684 | 4.32756 | 35010 ft | 455 kts | 125° |
| 2026-05-04 17:17 | 51.97384 | 4.50490 | 35013 ft | 454 kts | 125° |
| 2026-05-04 17:18 | 51.91072 | 4.68140 | 35002 ft | 452 kts | 125° |
| 2026-05-04 17:19 | 51.84768 | 4.85701 | 34989 ft | 450 kts | 126° |
| 2026-05-04 17:20 | 51.78988 | 5.01669 | 34979 ft | 449 kts | 126° |
| 2026-05-04 17:20 | 51.74454 | 5.14092 | 34976 ft | 448 kts | 126° |
| 2026-05-04 17:21 | 51.69215 | 5.28453 | 34970 ft | 448 kts | 126° |
| 2026-05-04 17:22 | 51.66041 | 5.37082 | 34969 ft | 447 kts | 127° |
| 2026-05-04 17:23 | 51.59681 | 5.54225 | 34964 ft | 447 kts | 127° |
| 2026-05-04 17:24 | 51.54892 | 5.67130 | 34955 ft | 448 kts | 127° |
| 2026-05-04 17:25 | 51.48470 | 5.84289 | 34953 ft | 449 kts | 127° |
| 2026-05-04 17:26 | 51.42004 | 6.01445 | 34952 ft | 449 kts | 127° |
| 2026-05-04 17:27 | 51.33893 | 6.22853 | 34963 ft | 450 kts | 127° |
| 2026-05-04 17:28 | 51.27383 | 6.39873 | 34968 ft | 450 kts | 127° |
| 2026-05-04 17:29 | 51.17550 | 6.65397 | 34960 ft | 450 kts | 127° |
| 2026-05-04 17:31 | 51.09310 | 6.86582 | 34965 ft | 450 kts | 127° |
| 2026-05-04 17:32 | 51.01015 | 7.07738 | 34982 ft | 452 kts | 127° |
| 2026-05-04 17:33 | 50.94353 | 7.24589 | 34990 ft | 453 kts | 127° |
| 2026-05-04 17:34 | 50.87635 | 7.41505 | 34988 ft | 453 kts | 127° |
| 2026-05-04 17:35 | 50.79195 | 7.62576 | 34990 ft | 454 kts | 127° |
| 2026-05-04 17:36 | 50.75803 | 7.71000 | 34987 ft | 454 kts | 128° |
| 2026-05-04 17:36 | 50.72429 | 7.79345 | 34986 ft | 454 kts | 128° |
| 2026-05-04 17:37 | 50.69029 | 7.87744 | 34986 ft | 454 kts | 128° |
| 2026-05-04 17:37 | 50.65612 | 7.96135 | 34986 ft | 455 kts | 128° |
| 2026-05-04 17:38 | 50.62190 | 8.04516 | 34985 ft | 454 kts | 128° |
| 2026-05-04 17:38 | 50.58569 | 8.12615 | 34985 ft | 450 kts | 134° |
| 2026-05-04 17:39 | 50.52718 | 8.24107 | 34986 ft | 450 kts | 134° |
| 2026-05-04 17:39 | 50.48799 | 8.31788 | 34984 ft | 451 kts | 134° |
| 2026-05-04 17:40 | 50.44857 | 8.39476 | 34982 ft | 452 kts | 134° |
| 2026-05-04 17:40 | 50.40915 | 8.47162 | 34979 ft | 452 kts | 134° |
| 2026-05-04 17:41 | 50.36947 | 8.54790 | 34978 ft | 451 kts | 135° |
| 2026-05-04 17:41 | 50.32739 | 8.62040 | 34977 ft | 449 kts | 138° |
| 2026-05-04 17:42 | 50.28403 | 8.69063 | 34975 ft | 449 kts | 139° |
| 2026-05-04 17:42 | 50.24105 | 8.76083 | 34973 ft | 450 kts | 138° |
| 2026-05-04 17:43 | 50.19826 | 8.83200 | 34975 ft | 450 kts | 137° |
| 2026-05-04 17:43 | 50.15554 | 8.90329 | 34974 ft | 450 kts | 137° |
| 2026-05-04 17:44 | 50.11267 | 8.97445 | 34975 ft | 450 kts | 137° |
| 2026-05-04 17:44 | 50.06975 | 9.04547 | 34974 ft | 450 kts | 137° |
| 2026-05-04 17:45 | 50.02669 | 9.11623 | 34980 ft | 450 kts | 138° |
| 2026-05-04 17:45 | 49.98358 | 9.18697 | 34993 ft | 450 kts | 138° |
| 2026-05-04 17:46 | 49.94040 | 9.25756 | 34978 ft | 451 kts | 138° |
| 2026-05-04 17:46 | 49.89712 | 9.32812 | 34976 ft | 451 kts | 138° |
| 2026-05-04 17:47 | 49.85381 | 9.39862 | 34971 ft | 452 kts | 138° |
| 2026-05-04 17:47 | 49.81043 | 9.46900 | 34966 ft | 452 kts | 138° |
| 2026-05-04 17:48 | 49.76724 | 9.53884 | 34967 ft | 452 kts | 138° |
| 2026-05-04 17:48 | 49.72367 | 9.60913 | 34970 ft | 453 kts | 138° |
| 2026-05-04 17:49 | 49.68011 | 9.67939 | 34970 ft | 453 kts | 138° |
| 2026-05-04 17:49 | 49.63643 | 9.74940 | 34973 ft | 453 kts | 138° |
| 2026-05-04 17:50 | 49.59263 | 9.81940 | 34967 ft | 454 kts | 138° |
| 2026-05-04 17:50 | 49.54886 | 9.88936 | 34970 ft | 454 kts | 138° |
| 2026-05-04 17:51 | 49.50495 | 9.95932 | 34972 ft | 454 kts | 138° |
| 2026-05-04 17:51 | 49.46095 | 10.02912 | 34962 ft | 454 kts | 138° |
| 2026-05-04 17:52 | 49.41691 | 10.09869 | 34967 ft | 454 kts | 138° |
| 2026-05-04 17:52 | 49.37284 | 10.16826 | 34968 ft | 454 kts | 138° |
| 2026-05-04 17:53 | 49.32885 | 10.23756 | 34965 ft | 454 kts | 138° |
| 2026-05-04 17:53 | 49.28503 | 10.30638 | 34970 ft | 453 kts | 138° |
| 2026-05-04 17:54 | 49.24098 | 10.37533 | 34985 ft | 453 kts | 138° |
| 2026-05-04 17:54 | 49.19645 | 10.44330 | 34983 ft | 452 kts | 139° |
| 2026-05-04 17:55 | 49.15119 | 10.51000 | 34985 ft | 451 kts | 140° |
| 2026-05-04 17:55 | 49.10600 | 10.57617 | 34985 ft | 450 kts | 139° |
| 2026-05-04 17:56 | 49.06098 | 10.64257 | 34985 ft | 450 kts | 139° |
| 2026-05-04 17:56 | 49.01606 | 10.70908 | 34989 ft | 449 kts | 139° |
| 2026-05-04 17:57 | 48.97116 | 10.77532 | 34989 ft | 449 kts | 139° |
| 2026-05-04 17:57 | 48.92654 | 10.84079 | 34980 ft | 449 kts | 139° |
| 2026-05-04 17:58 | 48.88145 | 10.90666 | 34967 ft | 449 kts | 139° |
| 2026-05-04 17:58 | 48.83644 | 10.97230 | 34951 ft | 449 kts | 139° |
| 2026-05-04 17:59 | 48.79132 | 11.03799 | 34948 ft | 449 kts | 139° |
| 2026-05-04 18:00 | 48.72358 | 11.13616 | 34941 ft | 449 kts | 139° |
| 2026-05-04 18:00 | 48.67831 | 11.20152 | 34946 ft | 449 kts | 139° |
| 2026-05-04 18:01 | 48.63321 | 11.26702 | 34944 ft | 450 kts | 137° |
| 2026-05-04 18:01 | 48.59051 | 11.33646 | 34942 ft | 451 kts | 134° |
| 2026-05-04 18:02 | 48.52842 | 11.44336 | 34921 ft | 451 kts | 135° |
| 2026-05-04 18:02 | 48.48661 | 11.51325 | 34923 ft | 451 kts | 135° |
| 2026-05-04 18:03 | 48.44390 | 11.58324 | 34936 ft | 451 kts | 135° |
| 2026-05-04 18:03 | 48.40162 | 11.65240 | 34936 ft | 451 kts | 135° |
| 2026-05-04 18:04 | 48.35918 | 11.72207 | 34929 ft | 452 kts | 135° |
| 2026-05-04 18:05 | 48.29542 | 11.82644 | 34936 ft | 452 kts | 135° |
| 2026-05-04 18:05 | 48.25290 | 11.89585 | 34943 ft | 451 kts | 135° |
| 2026-05-04 18:06 | 48.18904 | 11.99978 | 34949 ft | 451 kts | 136° |
| 2026-05-04 18:06 | 48.14639 | 12.06883 | 34942 ft | 451 kts | 136° |
| 2026-05-04 18:07 | 48.10370 | 12.13768 | 34937 ft | 451 kts | 136° |
| 2026-05-04 18:07 | 48.06099 | 12.20647 | 34935 ft | 451 kts | 136° |
| 2026-05-04 18:08 | 48.01832 | 12.27509 | 34928 ft | 451 kts | 136° |
| 2026-05-04 18:08 | 47.97557 | 12.34377 | 34932 ft | 451 kts | 136° |
| 2026-05-04 18:09 | 47.89000 | 12.48039 | 34919 ft | 451 kts | 136° |
| 2026-05-04 18:10 | 47.85431 | 12.53711 | 34923 ft | 451 kts | 136° |
| 2026-05-04 18:10 | 47.80444 | 12.61635 | 34919 ft | 451 kts | 136° |
| 2026-05-04 18:11 | 47.76845 | 12.67333 | 34913 ft | 452 kts | 136° |
| 2026-05-04 18:11 | 47.72532 | 12.74131 | 34913 ft | 452 kts | 136° |
| 2026-05-04 18:12 | 47.68209 | 12.80924 | 34917 ft | 452 kts | 136° |
| 2026-05-04 18:12 | 47.63812 | 12.87584 | 34919 ft | 452 kts | 138° |
| 2026-05-04 18:13 | 47.59330 | 12.94124 | 34925 ft | 452 kts | 138° |
| 2026-05-04 18:14 | 47.52612 | 13.03946 | 34923 ft | 453 kts | 137° |
| 2026-05-04 18:14 | 47.48145 | 13.10529 | 34944 ft | 454 kts | 137° |
| 2026-05-04 18:15 | 47.39210 | 13.23605 | 34972 ft | 454 kts | 138° |
| 2026-05-04 18:16 | 47.34715 | 13.30158 | 34983 ft | 454 kts | 138° |
| 2026-05-04 18:16 | 47.30234 | 13.36722 | 34983 ft | 454 kts | 137° |
| 2026-05-04 18:17 | 47.23631 | 13.46742 | 34995 ft | 455 kts | 136° |
| 2026-05-04 18:18 | 47.17014 | 13.56737 | 34993 ft | 454 kts | 137° |
| 2026-05-04 18:18 | 47.12581 | 13.63359 | 34999 ft | 455 kts | 137° |
| 2026-05-04 18:19 | 47.05920 | 13.73294 | 35005 ft | 455 kts | 137° |
| 2026-05-04 18:19 | 47.01469 | 13.79914 | 35005 ft | 456 kts | 137° |
| 2026-05-04 18:20 | 46.97014 | 13.86527 | 35007 ft | 456 kts | 137° |
| 2026-05-04 18:20 | 46.92542 | 13.93130 | 35011 ft | 457 kts | 137° |
| 2026-05-04 18:21 | 46.88076 | 13.99724 | 35009 ft | 457 kts | 137° |
| 2026-05-04 18:21 | 46.83606 | 14.06311 | 35007 ft | 456 kts | 137° |
| 2026-05-04 18:22 | 46.79128 | 14.12883 | 35008 ft | 456 kts | 137° |
| 2026-05-04 18:22 | 46.74647 | 14.19441 | 35013 ft | 457 kts | 137° |
| 2026-05-04 18:23 | 46.70150 | 14.26012 | 35017 ft | 457 kts | 137° |
| 2026-05-04 18:23 | 46.65689 | 14.32522 | 35018 ft | 458 kts | 137° |
| 2026-05-04 18:24 | 46.61180 | 14.39078 | 35013 ft | 458 kts | 137° |
| 2026-05-04 18:24 | 46.56671 | 14.45619 | 35011 ft | 458 kts | 137° |
| 2026-05-04 18:25 | 46.52152 | 14.52156 | 35020 ft | 459 kts | 137° |
| 2026-05-04 18:25 | 46.47622 | 14.58685 | 35022 ft | 459 kts | 137° |
| 2026-05-04 18:26 | 46.43149 | 14.65279 | 35037 ft | 460 kts | 134° |
| 2026-05-04 18:26 | 46.39008 | 14.72278 | 35037 ft | 461 kts | 131° |
| 2026-05-04 18:27 | 46.34959 | 14.79479 | 35033 ft | 461 kts | 131° |
| 2026-05-04 18:27 | 46.30841 | 14.86596 | 35033 ft | 461 kts | 133° |
| 2026-05-04 18:28 | 46.26646 | 14.93632 | 35027 ft | 462 kts | 132° |
| 2026-05-04 18:28 | 46.22439 | 15.00666 | 35027 ft | 463 kts | 133° |
| 2026-05-04 18:29 | 46.18241 | 15.07712 | 35020 ft | 463 kts | 132° |
| 2026-05-04 18:29 | 46.14045 | 15.14762 | 35031 ft | 463 kts | 132° |
| 2026-05-04 18:30 | 46.07738 | 15.25307 | 35021 ft | 463 kts | 132° |
| 2026-05-04 18:31 | 46.03553 | 15.32272 | 35029 ft | 463 kts | 132° |
| 2026-05-04 18:31 | 45.99336 | 15.39271 | 35030 ft | 463 kts | 132° |
| 2026-05-04 18:32 | 45.95114 | 15.46265 | 35017 ft | 463 kts | 132° |
| 2026-05-04 18:32 | 45.90886 | 15.53251 | 35028 ft | 463 kts | 132° |
| 2026-05-04 18:33 | 45.86656 | 15.60225 | 35019 ft | 464 kts | 132° |
| 2026-05-04 18:33 | 45.82410 | 15.67198 | 35022 ft | 464 kts | 132° |
| 2026-05-04 18:34 | 45.78151 | 15.74169 | 35028 ft | 464 kts | 132° |
| 2026-05-04 18:34 | 45.73894 | 15.81130 | 35032 ft | 465 kts | 132° |
| 2026-05-04 18:35 | 45.69661 | 15.88049 | 35035 ft | 465 kts | 132° |
| 2026-05-04 18:35 | 45.65391 | 15.95003 | 35034 ft | 465 kts | 132° |
| 2026-05-04 18:36 | 45.61114 | 16.01949 | 35024 ft | 466 kts | 132° |
| 2026-05-04 18:36 | 45.56832 | 16.08883 | 35032 ft | 466 kts | 132° |
| 2026-05-04 18:37 | 45.52535 | 16.15823 | 35031 ft | 467 kts | 132° |
| 2026-05-04 18:37 | 45.48230 | 16.22752 | 35029 ft | 467 kts | 132° |
| 2026-05-04 18:38 | 45.43920 | 16.29683 | 35034 ft | 467 kts | 132° |
| 2026-05-04 18:38 | 45.39601 | 16.36603 | 35033 ft | 468 kts | 132° |
| 2026-05-04 18:39 | 45.35282 | 16.43518 | 35031 ft | 468 kts | 132° |
| 2026-05-04 18:39 | 45.30944 | 16.50442 | 35016 ft | 469 kts | 132° |
| 2026-05-04 18:40 | 45.26634 | 16.57310 | 35030 ft | 469 kts | 132° |
| 2026-05-04 18:40 | 45.22284 | 16.64214 | 35032 ft | 469 kts | 132° |
| 2026-05-04 18:41 | 45.17939 | 16.71126 | 35032 ft | 470 kts | 131° |
| 2026-05-04 18:41 | 45.13648 | 16.78109 | 35033 ft | 470 kts | 131° |
| 2026-05-04 18:42 | 45.09372 | 16.85100 | 35032 ft | 470 kts | 131° |
| 2026-05-04 18:42 | 45.05074 | 16.92076 | 35031 ft | 470 kts | 131° |
| 2026-05-04 18:43 | 45.00762 | 16.99037 | 35030 ft | 471 kts | 131° |
| 2026-05-04 18:43 | 44.96434 | 17.05976 | 35027 ft | 471 kts | 132° |
| 2026-05-04 18:44 | 44.92210 | 17.12230 | 35014 ft | 471 kts | 135° |
| 2026-05-04 18:44 | 44.89150 | 17.16414 | 35022 ft | 471 kts | 136° |
| 2026-05-04 18:45 | 44.84440 | 17.22841 | 35029 ft | 471 kts | 135° |
| 2026-05-04 18:45 | 44.79775 | 17.29347 | 35026 ft | 471 kts | 135° |
| 2026-05-04 18:46 | 44.75139 | 17.35879 | 35033 ft | 472 kts | 135° |
| 2026-05-04 18:46 | 44.70486 | 17.42392 | 35040 ft | 472 kts | 135° |
| 2026-05-04 18:47 | 44.65846 | 17.48834 | 35033 ft | 472 kts | 135° |
| 2026-05-04 18:47 | 44.61169 | 17.55313 | 35052 ft | 472 kts | 135° |
| 2026-05-04 18:48 | 44.56500 | 17.61789 | 35055 ft | 473 kts | 135° |
| 2026-05-04 18:48 | 44.51814 | 17.68268 | 35061 ft | 473 kts | 135° |
| 2026-05-04 18:49 | 44.47122 | 17.74732 | 35062 ft | 473 kts | 135° |
| 2026-05-04 18:49 | 44.42427 | 17.81195 | 35058 ft | 473 kts | 135° |
| 2026-05-04 18:50 | 44.37718 | 17.87644 | 35058 ft | 474 kts | 135° |
| 2026-05-04 18:50 | 44.33004 | 17.94088 | 35055 ft | 474 kts | 135° |
| 2026-05-04 18:51 | 44.28284 | 18.00533 | 35058 ft | 475 kts | 135° |
| 2026-05-04 18:51 | 44.23583 | 18.06925 | 35067 ft | 475 kts | 135° |
| 2026-05-04 18:52 | 44.18848 | 18.13346 | 35070 ft | 476 kts | 135° |
| 2026-05-04 18:52 | 44.14101 | 18.19779 | 35074 ft | 476 kts | 135° |
| 2026-05-04 18:53 | 44.09350 | 18.26218 | 35074 ft | 476 kts | 135° |
| 2026-05-04 18:53 | 44.04598 | 18.32633 | 35079 ft | 477 kts | 135° |
| 2026-05-04 18:54 | 43.99827 | 18.39048 | 35085 ft | 477 kts | 135° |
| 2026-05-04 18:54 | 43.95055 | 18.45448 | 35079 ft | 478 kts | 135° |
| 2026-05-04 18:55 | 43.90274 | 18.51854 | 35088 ft | 478 kts | 135° |
| 2026-05-04 18:55 | 43.83089 | 18.61455 | 35092 ft | 478 kts | 135° |
| 2026-05-04 18:56 | 43.78294 | 18.67835 | 35089 ft | 478 kts | 135° |
| 2026-05-04 18:56 | 43.73534 | 18.74166 | 35099 ft | 478 kts | 135° |
| 2026-05-04 18:57 | 43.68740 | 18.80530 | 35102 ft | 478 kts | 135° |
| 2026-05-04 18:57 | 43.63941 | 18.86880 | 35098 ft | 477 kts | 135° |
| 2026-05-04 18:58 | 43.59139 | 18.93213 | 35097 ft | 477 kts | 135° |
| 2026-05-04 18:58 | 43.54331 | 18.99534 | 35105 ft | 477 kts | 135° |
| 2026-05-04 18:59 | 43.49520 | 19.05842 | 35107 ft | 477 kts | 135° |
| 2026-05-04 18:59 | 43.44710 | 19.12149 | 35109 ft | 477 kts | 135° |
| 2026-05-04 19:00 | 43.39897 | 19.18447 | 35112 ft | 477 kts | 135° |
| 2026-05-04 19:00 | 43.35082 | 19.24720 | 35124 ft | 477 kts | 135° |
| 2026-05-04 19:01 | 43.30291 | 19.30949 | 35122 ft | 477 kts | 135° |
| 2026-05-04 19:01 | 43.25473 | 19.37209 | 35115 ft | 477 kts | 135° |
| 2026-05-04 19:02 | 43.20652 | 19.43456 | 35130 ft | 477 kts | 135° |
| 2026-05-04 19:02 | 43.15830 | 19.49694 | 35124 ft | 477 kts | 135° |
| 2026-05-04 19:03 | 43.11001 | 19.55921 | 35129 ft | 477 kts | 135° |
| 2026-05-04 19:03 | 43.06167 | 19.62127 | 35132 ft | 477 kts | 135° |
| 2026-05-04 19:04 | 43.02152 | 19.67279 | 35139 ft | 477 kts | 135° |
| 2026-05-04 19:04 | 42.97316 | 19.73474 | 35134 ft | 477 kts | 135° |
| 2026-05-04 19:05 | 42.92467 | 19.79656 | 35137 ft | 477 kts | 135° |
| 2026-05-04 19:05 | 42.87621 | 19.85841 | 35144 ft | 477 kts | 135° |
| 2026-05-04 19:06 | 42.82764 | 19.92019 | 35144 ft | 477 kts | 135° |
| 2026-05-04 19:06 | 42.77909 | 19.98170 | 35145 ft | 477 kts | 135° |
| 2026-05-04 19:07 | 42.73273 | 20.04600 | 35148 ft | 475 kts | 127° |
| 2026-05-04 19:07 | 42.69086 | 20.11560 | 35147 ft | 475 kts | 127° |
| 2026-05-04 19:08 | 42.64888 | 20.18489 | 35142 ft | 475 kts | 127° |
| 2026-05-04 19:08 | 42.60699 | 20.25375 | 35143 ft | 476 kts | 127° |
| 2026-05-04 19:09 | 42.56483 | 20.32296 | 35141 ft | 476 kts | 127° |
| 2026-05-04 19:09 | 42.52260 | 20.39217 | 35140 ft | 476 kts | 127° |
| 2026-05-04 19:10 | 42.48031 | 20.46128 | 35139 ft | 477 kts | 127° |
| 2026-05-04 19:10 | 42.43785 | 20.53042 | 35142 ft | 477 kts | 127° |
| 2026-05-04 19:11 | 42.39534 | 20.59949 | 35147 ft | 478 kts | 127° |
| 2026-05-04 19:11 | 42.35286 | 20.66848 | 35150 ft | 478 kts | 127° |
| 2026-05-04 19:12 | 42.28888 | 20.77197 | 35151 ft | 478 kts | 127° |
| 2026-05-04 19:13 | 42.24622 | 20.84104 | 35156 ft | 478 kts | 127° |
| 2026-05-04 19:13 | 42.20385 | 20.90952 | 35155 ft | 478 kts | 127° |
| 2026-05-04 19:14 | 42.16097 | 20.97819 | 35153 ft | 479 kts | 127° |
| 2026-05-04 19:14 | 42.11807 | 21.04665 | 35136 ft | 479 kts | 129° |
| 2026-05-04 19:15 | 42.07026 | 21.10944 | 35138 ft | 481 kts | 134° |
| 2026-05-04 19:15 | 42.02158 | 21.17124 | 35133 ft | 481 kts | 134° |
| 2026-05-04 19:16 | 41.97283 | 21.23289 | 35123 ft | 481 kts | 134° |
| 2026-05-04 19:16 | 41.92405 | 21.29447 | 35125 ft | 481 kts | 134° |
| 2026-05-04 19:17 | 41.87528 | 21.35603 | 35116 ft | 481 kts | 134° |
| 2026-05-04 19:17 | 41.82650 | 21.41754 | 35118 ft | 481 kts | 134° |
| 2026-05-04 19:18 | 41.77768 | 21.47892 | 35111 ft | 481 kts | 134° |
| 2026-05-04 19:18 | 41.72880 | 21.54016 | 35111 ft | 481 kts | 135° |
| 2026-05-04 19:19 | 41.67997 | 21.60120 | 35109 ft | 481 kts | 135° |
| 2026-05-04 19:19 | 41.63098 | 21.66230 | 35111 ft | 481 kts | 135° |
| 2026-05-04 19:20 | 41.58205 | 21.72322 | 35109 ft | 481 kts | 135° |
| 2026-05-04 19:20 | 41.53333 | 21.78382 | 35113 ft | 481 kts | 135° |
| 2026-05-04 19:21 | 41.48425 | 21.84461 | 35111 ft | 481 kts | 135° |
| 2026-05-04 19:21 | 41.43517 | 21.90531 | 35113 ft | 481 kts | 135° |
| 2026-05-04 19:22 | 41.38611 | 21.96596 | 35116 ft | 481 kts | 135° |
| 2026-05-04 19:22 | 41.33705 | 22.02646 | 35117 ft | 481 kts | 135° |
| 2026-05-04 19:23 | 41.28795 | 22.08683 | 35119 ft | 480 kts | 135° |
| 2026-05-04 19:23 | 41.23885 | 22.14704 | 35117 ft | 480 kts | 135° |
| 2026-05-04 19:24 | 41.18970 | 22.20712 | 35114 ft | 480 kts | 135° |
| 2026-05-04 19:24 | 41.14015 | 22.26641 | 35114 ft | 480 kts | 138° |
| 2026-05-04 19:25 | 41.08878 | 22.32190 | 35111 ft | 479 kts | 140° |
| 2026-05-04 19:25 | 41.03631 | 22.37628 | 35111 ft | 478 kts | 140° |
| 2026-05-04 19:26 | 40.98424 | 22.43113 | 35110 ft | 477 kts | 140° |
| 2026-05-04 19:26 | 40.93284 | 22.48652 | 35104 ft | 476 kts | 139° |
| 2026-05-04 19:27 | 40.88154 | 22.54184 | 35103 ft | 475 kts | 140° |
| 2026-05-04 19:27 | 40.83016 | 22.59658 | 35096 ft | 474 kts | 140° |
| 2026-05-04 19:28 | 40.77912 | 22.65071 | 35100 ft | 473 kts | 140° |
| 2026-05-04 19:28 | 40.72780 | 22.70514 | 35098 ft | 473 kts | 140° |
| 2026-05-04 19:29 | 40.67648 | 22.75942 | 35102 ft | 473 kts | 140° |
| 2026-05-04 19:29 | 40.62521 | 22.81364 | 35106 ft | 472 kts | 140° |
| 2026-05-04 19:30 | 40.57401 | 22.86771 | 35106 ft | 471 kts | 140° |
| 2026-05-04 19:30 | 40.52285 | 22.92161 | 35104 ft | 471 kts | 140° |
| 2026-05-04 19:31 | 40.47173 | 22.97529 | 35102 ft | 470 kts | 140° |
| 2026-05-04 19:31 | 40.42517 | 23.03497 | 35101 ft | 468 kts | 132° |
| 2026-05-04 19:32 | 40.38036 | 23.09703 | 35104 ft | 468 kts | 133° |
| 2026-05-04 19:32 | 40.33543 | 23.15889 | 35106 ft | 467 kts | 133° |
| 2026-05-04 19:33 | 40.29060 | 23.22052 | 35109 ft | 467 kts | 133° |
| 2026-05-04 19:33 | 40.24613 | 23.28156 | 35110 ft | 466 kts | 133° |
| 2026-05-04 19:34 | 40.20141 | 23.34298 | 35108 ft | 466 kts | 133° |
| 2026-05-04 19:34 | 40.15671 | 23.40430 | 35108 ft | 466 kts | 133° |
| 2026-05-04 19:35 | 40.11203 | 23.46554 | 35111 ft | 465 kts | 133° |
| 2026-05-04 19:35 | 40.06726 | 23.52660 | 35106 ft | 465 kts | 133° |
| 2026-05-04 19:36 | 40.02246 | 23.58754 | 35108 ft | 465 kts | 133° |
| 2026-05-04 19:36 | 39.97766 | 23.64835 | 35113 ft | 465 kts | 133° |
| 2026-05-04 19:37 | 39.93309 | 23.70867 | 35113 ft | 465 kts | 133° |
| 2026-05-04 19:37 | 39.88824 | 23.76934 | 35113 ft | 465 kts | 133° |
| 2026-05-04 19:38 | 39.84332 | 23.82988 | 35111 ft | 465 kts | 133° |
| 2026-05-04 19:38 | 39.79839 | 23.89038 | 35108 ft | 465 kts | 133° |
| 2026-05-04 19:39 | 39.75351 | 23.95094 | 35105 ft | 465 kts | 133° |
| 2026-05-04 19:39 | 39.70852 | 24.01136 | 35098 ft | 465 kts | 133° |
| 2026-05-04 19:40 | 39.66343 | 24.07167 | 35097 ft | 465 kts | 133° |
| 2026-05-04 19:40 | 39.61860 | 24.13156 | 35099 ft | 466 kts | 133° |
| 2026-05-04 19:41 | 39.57348 | 24.19183 | 35099 ft | 466 kts | 133° |
| 2026-05-04 19:41 | 39.52831 | 24.25204 | 35096 ft | 466 kts | 133° |
| 2026-05-04 19:42 | 39.48305 | 24.31212 | 35096 ft | 466 kts | 133° |
| 2026-05-04 19:42 | 39.43768 | 24.37219 | 35101 ft | 467 kts | 133° |
| 2026-05-04 19:43 | 39.39230 | 24.43231 | 35102 ft | 467 kts | 133° |
| 2026-05-04 19:43 | 39.34718 | 24.49196 | 35103 ft | 467 kts | 133° |
| 2026-05-04 19:44 | 39.30178 | 24.55211 | 35104 ft | 467 kts | 133° |
| 2026-05-04 19:44 | 39.25673 | 24.61255 | 35104 ft | 467 kts | 133° |
| 2026-05-04 19:45 | 39.21166 | 24.67296 | 35105 ft | 467 kts | 133° |
| 2026-05-04 19:45 | 39.16638 | 24.73327 | 35106 ft | 468 kts | 133° |
| 2026-05-04 19:46 | 39.12103 | 24.79338 | 35103 ft | 468 kts | 133° |
| 2026-05-04 19:46 | 39.07550 | 24.85342 | 35104 ft | 468 kts | 133° |
| 2026-05-04 19:47 | 39.03004 | 24.91229 | 35122 ft | 467 kts | 134° |
| 2026-05-04 19:47 | 38.98416 | 24.97132 | 35123 ft | 466 kts | 134° |
| 2026-05-04 19:48 | 38.93836 | 25.03042 | 35125 ft | 466 kts | 134° |
| 2026-05-04 19:48 | 38.89272 | 25.08947 | 35123 ft | 466 kts | 134° |
| 2026-05-04 19:49 | 38.84705 | 25.14843 | 35123 ft | 466 kts | 134° |
| 2026-05-04 19:49 | 38.80129 | 25.20723 | 35119 ft | 466 kts | 134° |
| 2026-05-04 19:50 | 38.75579 | 25.26559 | 35117 ft | 466 kts | 134° |
| 2026-05-04 19:50 | 38.70969 | 25.32462 | 35119 ft | 466 kts | 134° |
| 2026-05-04 19:51 | 38.66377 | 25.38329 | 35119 ft | 466 kts | 134° |
| 2026-05-04 19:51 | 38.61806 | 25.44152 | 35114 ft | 467 kts | 134° |
| 2026-05-04 19:52 | 38.57175 | 25.50055 | 35117 ft | 467 kts | 134° |
| 2026-05-04 19:52 | 38.52600 | 25.55879 | 35119 ft | 467 kts | 134° |
| 2026-05-04 19:53 | 38.47987 | 25.61734 | 35119 ft | 468 kts | 134° |
| 2026-05-04 19:53 | 38.43368 | 25.67571 | 35115 ft | 468 kts | 134° |
| 2026-05-04 19:54 | 38.38738 | 25.73415 | 35114 ft | 468 kts | 134° |
| 2026-05-04 19:54 | 38.34110 | 25.79259 | 35117 ft | 468 kts | 134° |
| 2026-05-04 19:55 | 38.29489 | 25.85112 | 35125 ft | 469 kts | 133° |
| 2026-05-04 19:55 | 38.24463 | 25.90381 | 35112 ft | 470 kts | 148° |
| 2026-05-04 19:56 | 38.18489 | 25.93624 | 35121 ft | 471 kts | 160° |
| 2026-05-04 19:56 | 38.12267 | 25.96421 | 35113 ft | 472 kts | 160° |
| 2026-05-04 19:57 | 38.06121 | 25.99237 | 35109 ft | 472 kts | 159° |
| 2026-05-04 19:57 | 37.99934 | 26.02073 | 35109 ft | 473 kts | 159° |
| 2026-05-04 19:58 | 37.93734 | 26.04891 | 35101 ft | 474 kts | 160° |
| 2026-05-04 19:58 | 37.87522 | 26.07701 | 35105 ft | 474 kts | 159° |
| 2026-05-04 19:59 | 37.81302 | 26.10513 | 35104 ft | 475 kts | 159° |
| 2026-05-04 19:59 | 37.76124 | 26.12850 | 35109 ft | 475 kts | 159° |
| 2026-05-04 20:00 | 37.69886 | 26.15658 | 34849 ft | 476 kts | 159° |
| 2026-05-04 20:00 | 37.65752 | 26.17523 | 33895 ft | 478 kts | 159° |
| 2026-05-04 20:00 | 37.62601 | 26.18942 | 32773 ft | 482 kts | 159° |
| 2026-05-04 20:00 | 37.60460 | 26.19905 | 32069 ft | 484 kts | 159° |
| 2026-05-04 20:01 | 37.57281 | 26.21333 | 31011 ft | 486 kts | 158° |
| 2026-05-04 20:01 | 37.54086 | 26.22768 | 29778 ft | 490 kts | 158° |
| 2026-05-04 20:01 | 37.50859 | 26.24216 | 28519 ft | 493 kts | 158° |
| 2026-05-04 20:01 | 37.47644 | 26.25651 | 27840 ft | 485 kts | 159° |
| 2026-05-04 20:02 | 37.44513 | 26.27045 | 27056 ft | 481 kts | 159° |
| 2026-05-04 20:02 | 37.41373 | 26.28442 | 26285 ft | 477 kts | 159° |
| 2026-05-04 20:02 | 37.38256 | 26.29831 | 25532 ft | 474 kts | 159° |
| 2026-05-04 20:02 | 37.35152 | 26.31212 | 24785 ft | 472 kts | 159° |
| 2026-05-04 20:03 | 37.32069 | 26.32587 | 24051 ft | 470 kts | 159° |
| 2026-05-04 20:03 | 37.28993 | 26.33960 | 23252 ft | 468 kts | 159° |
| 2026-05-04 20:03 | 37.25932 | 26.35324 | 22539 ft | 465 kts | 159° |
| 2026-05-04 20:03 | 37.22895 | 26.36671 | 21866 ft | 461 kts | 160° |
| 2026-05-04 20:04 | 37.19885 | 26.38004 | 21256 ft | 457 kts | 160° |
| 2026-05-04 20:04 | 37.16900 | 26.39327 | 20632 ft | 453 kts | 160° |
| 2026-05-04 20:04 | 37.13939 | 26.40639 | 20055 ft | 450 kts | 160° |
| 2026-05-04 20:04 | 37.10988 | 26.41941 | 19491 ft | 447 kts | 160° |
| 2026-05-04 20:05 | 37.08062 | 26.43229 | 18930 ft | 445 kts | 160° |
| 2026-05-04 20:05 | 37.05151 | 26.44511 | 18390 ft | 442 kts | 161° |
| 2026-05-04 20:05 | 37.02263 | 26.45787 | 17801 ft | 440 kts | 161° |
| 2026-05-04 20:05 | 36.99386 | 26.47059 | 17258 ft | 435 kts | 160° |
| 2026-05-04 20:06 | 36.96581 | 26.48300 | 16714 ft | 432 kts | 160° |
| 2026-05-04 20:06 | 36.93779 | 26.49614 | 16149 ft | 429 kts | 155° |
| 2026-05-04 20:06 | 36.91213 | 26.51467 | 15584 ft | 424 kts | 142° |
| 2026-05-04 20:06 | 36.89022 | 26.53908 | 15009 ft | 419 kts | 129° |
| 2026-05-04 20:07 | 36.87301 | 26.56810 | 14412 ft | 413 kts | 117° |
| 2026-05-04 20:07 | 36.86062 | 26.60019 | 13809 ft | 408 kts | 109° |
| 2026-05-04 20:07 | 36.84952 | 26.63273 | 13160 ft | 406 kts | 110° |
| 2026-05-04 20:07 | 36.83837 | 26.66495 | 12543 ft | 402 kts | 111° |
| 2026-05-04 20:08 | 36.82437 | 26.69505 | 11919 ft | 402 kts | 123° |
| 2026-05-04 20:08 | 36.80635 | 26.72167 | 11300 ft | 400 kts | 130° |
| 2026-05-04 20:08 | 36.78770 | 26.74722 | 10800 ft | 393 kts | 130° |
| 2026-05-04 20:08 | 36.76970 | 26.77191 | 10678 ft | 376 kts | 130° |
| 2026-05-04 20:09 | 36.75272 | 26.79523 | 10559 ft | 361 kts | 130° |
| 2026-05-04 20:09 | 36.73597 | 26.81823 | 10430 ft | 346 kts | 130° |
| 2026-05-04 20:09 | 36.72038 | 26.83959 | 10280 ft | 327 kts | 130° |
| 2026-05-04 20:09 | 36.70533 | 26.86014 | 9841 ft | 316 kts | 131° |
| 2026-05-04 20:10 | 36.68914 | 26.87818 | 9244 ft | 312 kts | 142° |
| 2026-05-04 20:10 | 36.67119 | 26.89357 | 8872 ft | 310 kts | 145° |
| 2026-05-04 20:10 | 36.65327 | 26.90835 | 8640 ft | 309 kts | 145° |
| 2026-05-04 20:10 | 36.63535 | 26.92309 | 8414 ft | 307 kts | 145° |
| 2026-05-04 20:11 | 36.61836 | 26.93900 | 8068 ft | 306 kts | 133° |
| 2026-05-04 20:11 | 36.60670 | 26.96092 | 7564 ft | 301 kts | 107° |
| 2026-05-04 20:11 | 36.60228 | 26.98567 | 7232 ft | 290 kts | 91° |
| 2026-05-04 20:11 | 36.60054 | 27.01062 | 6809 ft | 288 kts | 90° |
| 2026-05-04 20:12 | 36.59885 | 27.03573 | 6216 ft | 289 kts | 91° |
| 2026-05-04 20:12 | 36.59717 | 27.05972 | 6033 ft | 268 kts | 90° |
| 2026-05-04 20:12 | 36.59559 | 27.08230 | 5912 ft | 255 kts | 90° |
| 2026-05-04 20:12 | 36.59411 | 27.10372 | 5806 ft | 242 kts | 90° |
| 2026-05-04 20:13 | 36.59317 | 27.12400 | 5705 ft | 233 kts | 81° |
| 2026-05-04 20:13 | 36.59639 | 27.14343 | 5460 ft | 229 kts | 63° |
| 2026-05-04 20:13 | 36.60225 | 27.16180 | 5107 ft | 229 kts | 63° |
| 2026-05-04 20:13 | 36.60799 | 27.18016 | 4767 ft | 229 kts | 64° |
| 2026-05-04 20:14 | 36.61443 | 27.19832 | 4410 ft | 225 kts | 50° |
| 2026-05-04 20:14 | 36.62621 | 27.20961 | 4081 ft | 209 kts | 14° |
| 2026-05-04 20:14 | 36.64018 | 27.21009 | 3805 ft | 202 kts | 343° |
| 2026-05-04 20:14 | 36.65202 | 27.20161 | 3609 ft | 190 kts | 327° |
| 2026-05-04 20:15 | 36.66285 | 27.19279 | 3267 ft | 182 kts | 330° |
| 2026-05-04 20:15 | 36.67320 | 27.18484 | 2985 ft | 168 kts | 330° |
| 2026-05-04 20:15 | 36.68303 | 27.17732 | 2748 ft | 166 kts | 329° |
| 2026-05-04 20:15 | 36.69272 | 27.16989 | 2509 ft | 165 kts | 329° |
| 2026-05-04 20:16 | 36.70263 | 27.16228 | 2275 ft | 165 kts | 329° |
| 2026-05-04 20:16 | 36.71195 | 27.15512 | 2060 ft | 153 kts | 329° |
| 2026-05-04 20:16 | 36.72056 | 27.14850 | 1891 ft | 139 kts | 329° |
| 2026-05-04 20:16 | 36.72862 | 27.14230 | 1712 ft | 134 kts | 329° |
| 2026-05-04 20:17 | 36.73647 | 27.13624 | 1526 ft | 132 kts | 329° |
| 2026-05-04 20:17 | 36.74422 | 27.13024 | 1348 ft | 131 kts | 328° |
| 2026-05-04 20:17 | 36.75194 | 27.12426 | 1168 ft | 131 kts | 330° |
| 2026-05-04 20:17 | 36.75969 | 27.11827 | 1002 ft | 131 kts | 328° |
| 2026-05-04 20:18 | 36.76750 | 27.11222 | 832 ft | 133 kts | 330° |
| 2026-05-04 20:18 | 36.77525 | 27.10605 | 705 ft | 134 kts | 329° |
| 2026-05-04 20:18 | 36.78340 | 27.10028 | 535 ft | 133 kts | 322° |
| 2026-05-04 20:18 | 36.79071 | 27.09381 | 617 ft | 128 kts | 327° |
| 2026-05-04 20:19 | 36.79847 | 27.08752 | 1284 ft | 135 kts | 329° |
| 2026-05-04 20:19 | 36.80649 | 27.08157 | 1596 ft | 129 kts | 329° |
| 2026-05-04 20:19 | 36.81363 | 27.07561 | 1357 ft | 127 kts | 326° |
| 2026-05-04 20:19 | 36.82058 | 27.06946 | 1269 ft | 117 kts | 326° |
| 2026-05-04 20:20 | 36.82857 | 27.06232 | 1562 ft | 163 kts | 325° |
| 2026-05-04 20:20 | 36.83824 | 27.05357 | 1996 ft | 183 kts | 324° |
| 2026-05-04 20:20 | 36.84659 | 27.04055 | 1994 ft | 197 kts | 293° |
| 2026-05-04 20:20 | 36.84815 | 27.02354 | 2003 ft | 199 kts | 275° |
| 2026-05-04 20:21 | 36.84730 | 27.00659 | 2005 ft | 195 kts | 261° |
| 2026-05-04 20:21 | 36.83999 | 26.99213 | 2007 ft | 205 kts | 226° |
| 2026-05-04 20:21 | 36.81589 | 26.97243 | 2364 ft | 210 kts | 218° |
| 2026-05-04 20:22 | 36.80332 | 26.96238 | 2605 ft | 218 kts | 217° |
| 2026-05-04 20:22 | 36.79043 | 26.95209 | 2853 ft | 222 kts | 216° |
| 2026-05-04 20:22 | 36.77705 | 26.94241 | 2987 ft | 225 kts | 204° |
| 2026-05-04 20:22 | 36.76152 | 26.93993 | 3010 ft | 228 kts | 172° |
| 2026-05-04 20:23 | 36.74702 | 26.94725 | 3015 ft | 227 kts | 140° |
| 2026-05-04 20:23 | 36.73554 | 26.96031 | 3003 ft | 227 kts | 134° |
| 2026-05-04 20:23 | 36.72412 | 26.97390 | 3014 ft | 227 kts | 134° |
| 2026-05-04 20:23 | 36.71272 | 26.98749 | 3013 ft | 227 kts | 134° |
| 2026-05-04 20:24 | 36.70131 | 27.00107 | 3016 ft | 227 kts | 134° |
| 2026-05-04 20:24 | 36.68990 | 27.01460 | 3000 ft | 226 kts | 134° |
| 2026-05-04 20:24 | 36.67848 | 27.02811 | 3016 ft | 226 kts | 134° |
| 2026-05-04 20:24 | 36.66705 | 27.04165 | 3011 ft | 226 kts | 134° |
| 2026-05-04 20:25 | 36.65567 | 27.05513 | 3014 ft | 226 kts | 134° |
| 2026-05-04 20:25 | 36.64436 | 27.06872 | 3011 ft | 225 kts | 129° |
| 2026-05-04 20:25 | 36.63667 | 27.08512 | 2760 ft | 215 kts | 99° |
| 2026-05-04 20:25 | 36.63450 | 27.10293 | 2654 ft | 205 kts | 91° |
| 2026-05-04 20:26 | 36.63273 | 27.12052 | 2606 ft | 205 kts | 91° |
| 2026-05-04 20:26 | 36.63093 | 27.13811 | 2560 ft | 205 kts | 92° |
| 2026-05-04 20:26 | 36.63000 | 27.15560 | 2521 ft | 199 kts | 76° |
| 2026-05-04 20:26 | 36.63440 | 27.17126 | 2467 ft | 188 kts | 50° |
| 2026-05-04 20:27 | 36.64328 | 27.18262 | 2428 ft | 181 kts | 27° |
| 2026-05-04 20:27 | 36.65468 | 27.18832 | 2485 ft | 176 kts | 6° |
| 2026-05-04 20:27 | 36.66660 | 27.18817 | 2505 ft | 173 kts | 346° |
| 2026-05-04 20:27 | 36.67769 | 27.18219 | 2503 ft | 173 kts | 328° |
| 2026-05-04 20:28 | 36.68771 | 27.17426 | 2505 ft | 173 kts | 329° |
| 2026-05-04 20:28 | 36.69737 | 27.16670 | 2449 ft | 154 kts | 329° |
| 2026-05-04 20:28 | 36.70611 | 27.15990 | 2218 ft | 142 kts | 329° |
| 2026-05-04 20:28 | 36.71428 | 27.15357 | 2029 ft | 135 kts | 329° |
| 2026-05-04 20:29 | 36.72215 | 27.14746 | 1871 ft | 132 kts | 329° |
| 2026-05-04 20:29 | 36.73002 | 27.14136 | 1666 ft | 136 kts | 328° |
| 2026-05-04 20:29 | 36.73800 | 27.13517 | 1500 ft | 133 kts | 328° |
| 2026-05-04 20:29 | 36.74581 | 27.12910 | 1315 ft | 131 kts | 330° |
| 2026-05-04 20:30 | 36.75354 | 27.12312 | 1133 ft | 130 kts | 330° |
| 2026-05-04 20:30 | 36.76109 | 27.11727 | 965 ft | 130 kts | 329° |
| 2026-05-04 20:30 | 36.76886 | 27.11123 | 800 ft | 132 kts | 329° |
| 2026-05-04 20:30 | 36.77672 | 27.10512 | 620 ft | 132 kts | 331° |
| 2026-05-04 20:31 | 36.78445 | 27.09912 | 476 ft | 130 kts | 329° |
| 2026-05-04 20:31 | 36.79154 | 27.09358 | 430 ft | 111 kts | 329° |
| 2026-05-04 20:31 | 36.79603 | 27.09010 | 438 ft | 35 kts | 330° |
| 2026-05-04 20:31 | 36.79783 | 27.08995 | 440 ft | 13 kts | 12° |
| 2026-05-04 20:32 | 36.79849 | 27.08983 | 434 ft | 9 kts | 360° |
| 2026-05-04 20:32 | 36.79916 | 27.08983 | 443 ft | 10 kts | 359° |
| 2026-05-04 20:32 | 36.79980 | 27.08945 | 442 ft | 11 kts | 329° |
| 2026-05-04 20:32 | 36.80042 | 27.08909 | 442 ft | 6 kts | 356° |
| 2026-05-04 20:33 | 36.80059 | 27.08926 | 438 ft | 1 kts | 90° |
| 2026-05-04 20:33 | 36.80061 | 27.08947 | 440 ft | 5 kts | 66° |
| 2026-05-04 20:33 | 36.80075 | 27.08973 | 437 ft | 2 kts | 57° |
| 2026-05-04 20:33 | 36.80075 | 27.08974 | 436 ft | 0 kts | 57° |